Time;durP1;ratioP1;P1;durP2;ratioP2;P2;SDS_P1;SDS_P2;PMS_P1;PMS_P2;Temp;Humidity;BMP_temperature;BMP_pressure;BME280_temperature;BME280_humidity;BME280_pressure;Samples;Min_cycle;Max_cycle;Signal;HPM_P1;HPM_P2
2023/12/27 00:00:38;;;;;;;;;;;;;;;6.90;78.62;101352.88;4196058;28;19942;-68
2023/12/27 00:02:40;;;;;;;;;;;;;;;6.88;77.87;101352.16;4196179;28;20012;-67
2023/12/27 00:04:42;;;;;;;;;;;;;;;6.90;78.38;101350.19;4196207;28;20011;-68
2023/12/27 00:06:45;;;;;;;;;;;;;;;6.89;78.29;101348.47;4197799;28;19978;-67
2023/12/27 00:08:46;;;;;;;;;;;;;;;6.88;77.23;101350.34;4198476;28;20003;-67
2023/12/27 00:10:48;;;;;;;;;;;;;;;6.87;77.63;101351.31;4197169;28;19954;-68
2023/12/27 00:12:50;;;;;;;;;;;;;;;6.87;77.53;101363.91;4196278;28;20454;-67
2023/12/27 00:14:52;;;;;;;;;;;;;;;6.85;77.60;101358.66;4196602;28;20019;-68
2023/12/27 00:16:54;;;;;;;;;;;;;;;6.79;76.79;101356.53;4197395;28;20015;-68
2023/12/27 00:18:56;;;;;;;;;;;;;;;6.78;77.14;101374.44;4197264;28;20036;-67
2023/12/27 00:20:58;;;;;;;;;;;;;;;6.77;77.32;101385.31;4197099;28;20027;-68
2023/12/27 00:23:01;;;;;;;;;;;;;;;6.75;76.92;101392.66;4197137;28;20058;-68
2023/12/27 00:25:03;;;;;;;;;;;;;;;6.73;76.43;101390.13;4195688;28;20011;-67
2023/12/27 00:27:05;;;;;;;;;;;;;;;6.73;77.46;101381.22;4197273;28;20023;-67
2023/12/27 00:29:06;;;;;;;;;;;;;;;6.72;77.63;101384.88;4197514;28;20024;-67
2023/12/27 00:31:09;;;;;;;;;;;;;;;6.70;77.50;101394.94;4195898;28;20487;-66
2023/12/27 00:33:10;;;;;;;;;;;;;;;6.66;76.99;101387.13;4197096;28;20031;-67
2023/12/27 00:35:12;;;;;;;;;;;;;;;6.64;77.25;101391.78;4195660;28;20031;-67
2023/12/27 00:37:14;;;;;;;;;;;;;;;6.62;77.17;101391.06;4197525;28;20011;-68
2023/12/27 00:39:23;;;;;;;;;;;;;;;6.62;77.76;101387.53;4196600;28;20094;-68
2023/12/27 00:41:25;;;;;;;;;;;;;;;6.60;77.05;101395.72;4196381;28;19939;-67
2023/12/27 00:43:26;;;;;;;;;;;;;;;6.57;77.27;101393.31;4195932;28;20019;-68
2023/12/27 00:45:28;;;;;;;;;;;;;;;6.53;76.70;101394.56;4196097;28;19949;-67
2023/12/27 00:47:30;;;;;;;;;;;;;;;6.55;78.19;101394.44;4196713;28;20012;-67
2023/12/27 00:49:33;;;;;;;;;;;;;;;6.53;77.80;101405.28;4196651;28;20019;-67
2023/12/27 00:51:35;;;;;;;;;;;;;;;6.49;77.07;101404.72;4196605;28;20015;-67
2023/12/27 00:53:37;;;;;;;;;;;;;;;6.51;77.33;101409.13;4212589;28;20023;-68
2023/12/27 00:55:41;;;;;;;;;;;;;;;6.48;77.58;101413.75;4196892;28;20015;-67
2023/12/27 00:57:43;;;;;;;;;;;;;;;6.50;78.51;101421.66;4195914;28;20710;-68
2023/12/27 00:59:46;;;;;;;;;;;;;;;6.47;78.20;101429.97;4194724;28;20385;-67
2023/12/27 01:01:48;;;;;;;;;;;;;;;6.46;78.24;101415.72;4195575;28;19998;-67
2023/12/27 01:03:50;;;;;;;;;;;;;;;6.41;77.47;101433.19;4195852;28;20461;-68
2023/12/27 01:05:52;;;;;;;;;;;;;;;6.41;77.80;101436.75;4196288;28;20434;-68
2023/12/27 01:07:53;;;;;;;;;;;;;;;6.38;77.76;101439.69;4196004;28;20425;-67
2023/12/27 01:09:55;;;;;;;;;;;;;;;6.36;78.23;101444.31;4196057;28;20015;-68
2023/12/27 01:11:59;;;;;;;;;;;;;;;6.38;78.65;101446.88;4195844;28;20015;-68
2023/12/27 01:14:02;;;;;;;;;;;;;;;6.34;78.44;101448.97;4196232;28;20027;-68
2023/12/27 01:16:04;;;;;;;;;;;;;;;6.32;78.38;101454.47;4195984;28;20019;-67
2023/12/27 01:18:06;;;;;;;;;;;;;;;6.31;78.49;101452.75;4195187;28;20027;-68
2023/12/27 01:20:08;;;;;;;;;;;;;;;6.27;78.04;101453.16;4195538;28;20019;-68
2023/12/27 01:22:11;;;;;;;;;;;;;;;6.26;78.08;101463.06;4195704;28;20345;-67
2023/12/27 01:24:12;;;;;;;;;;;;;;;6.24;78.53;101465.03;4195704;28;20015;-67
2023/12/27 01:26:15;;;;;;;;;;;;;;;6.21;77.99;101465.28;4196250;28;20015;-67
2023/12/27 01:28:17;;;;;;;;;;;;;;;6.22;78.27;101475.03;4195130;28;20035;-67
2023/12/27 01:30:19;;;;;;;;;;;;;;;6.21;78.60;101475.16;4195611;28;20011;-68
2023/12/27 01:32:21;;;;;;;;;;;;;;;6.21;78.44;101476.00;4195452;28;20027;-68
2023/12/27 01:34:29;;;;;;;;;;;;;;;6.19;78.15;101491.41;4196197;28;20024;-68
2023/12/27 01:36:31;;;;;;;;;;;;;;;6.18;78.80;101497.72;4195043;28;20011;-68
2023/12/27 01:38:32;;;;;;;;;;;;;;;6.15;78.39;101513.25;4196072;28;20339;-68
2023/12/27 01:40:34;;;;;;;;;;;;;;;6.13;78.52;101508.00;4194660;28;19970;-68
2023/12/27 01:42:37;;;;;;;;;;;;;;;6.16;79.53;101501.50;4194174;28;19967;-68
2023/12/27 01:44:40;;;;;;;;;;;;;;;6.16;79.60;101509.56;4195468;28;20019;-68
2023/12/27 01:46:42;;;;;;;;;;;;;;;6.12;78.87;101509.81;4195624;28;20011;-68
2023/12/27 01:48:44;;;;;;;;;;;;;;;6.11;79.02;101513.50;4194968;28;20075;-68
2023/12/27 01:50:48;;;;;;;;;;;;;;;6.10;79.26;101522.50;4196083;28;20043;-68
2023/12/27 01:52:50;;;;;;;;;;;;;;;6.13;79.94;101527.63;4196064;28;20418;-67
2023/12/27 01:54:52;;;;;;;;;;;;;;;6.10;78.90;101525.19;4195686;28;20011;-67
2023/12/27 01:56:53;;;;;;;;;;;;;;;6.09;79.51;101525.31;4195221;28;20373;-67
2023/12/27 01:58:55;;;;;;;;;;;;;;;6.10;79.72;101533.25;4195608;28;20011;-68
2023/12/27 02:00:59;;;;;;;;;;;;;;;6.09;79.52;101531.53;4194668;28;20019;-68
2023/12/27 02:03:01;;;;;;;;;;;;;;;6.04;79.27;101528.38;4193611;28;20652;-67
2023/12/27 02:05:03;;;;;;;;;;;;;;;6.04;79.29;101531.06;4193331;28;20023;-67
2023/12/27 02:07:05;;;;;;;;;;;;;;;6.01;79.46;101517.06;4194696;28;20007;-68
2023/12/27 02:09:07;;;;;;;;;;;;;;;6.00;79.38;101521.56;4194888;28;20426;-68
2023/12/27 02:11:09;;;;;;;;;;;;;;;5.97;79.10;101527.19;4193316;28;20416;-67
2023/12/27 02:13:11;;;;;;;;;;;;;;;5.96;79.09;101533.50;4193339;28;20363;-68
2023/12/27 02:15:13;;;;;;;;;;;;;;;5.98;79.77;101528.06;4193972;28;20019;-67
2023/12/27 02:17:16;;;;;;;;;;;;;;;5.97;79.56;101534.38;4195880;28;20011;-68
2023/12/27 02:19:19;;;;;;;;;;;;;;;5.97;79.93;101534.38;4194883;28;20019;-67
2023/12/27 02:21:21;;;;;;;;;;;;;;;5.92;79.29;101537.41;4193864;28;20019;-67
2023/12/27 02:23:23;;;;;;;;;;;;;;;5.90;79.07;101542.06;4187710;28;19924;-67
2023/12/27 02:25:26;;;;;;;;;;;;;;;5.90;80.02;101539.38;4191984;28;20027;-67
2023/12/27 02:27:28;;;;;;;;;;;;;;;5.88;79.95;101536.00;4195835;28;20028;-68
2023/12/27 02:29:30;;;;;;;;;;;;;;;5.87;80.26;101543.16;4194978;28;20031;-68
2023/12/27 02:31:32;;;;;;;;;;;;;;;5.84;80.03;101540.72;4195765;28;20015;-68
2023/12/27 02:33:34;;;;;;;;;;;;;;;5.85;80.12;101537.09;4194706;28;20039;-67
2023/12/27 02:35:36;;;;;;;;;;;;;;;5.82;79.87;101537.34;4193528;28;20518;-68
2023/12/27 02:37:37;;;;;;;;;;;;;;;5.78;79.48;101542.09;4193104;28;20015;-67
2023/12/27 02:39:39;;;;;;;;;;;;;;;5.76;79.62;101549.41;4195425;28;20386;-67
2023/12/27 02:41:43;;;;;;;;;;;;;;;5.74;79.35;101551.38;4192071;28;20027;-67
2023/12/27 02:43:45;;;;;;;;;;;;;;;5.72;79.74;101556.00;4209618;28;20493;-67
2023/12/27 02:45:48;;;;;;;;;;;;;;;5.71;79.59;101548.94;4194731;28;20031;-67
2023/12/27 02:47:51;;;;;;;;;;;;;;;5.65;79.39;101546.75;4193675;28;20027;-67
2023/12/27 02:49:53;;;;;;;;;;;;;;;5.63;79.83;101545.16;4194368;28;20023;-67
2023/12/27 02:51:55;;;;;;;;;;;;;;;5.61;80.15;101542.59;4178173;28;19991;-67
2023/12/27 02:53:56;;;;;;;;;;;;;;;5.59;80.28;101541.88;4211286;28;20028;-68
2023/12/27 02:55:58;;;;;;;;;;;;;;;5.55;79.73;101540.47;4194520;28;19925;-68
2023/12/27 02:58:02;;;;;;;;;;;;;;;5.53;80.21;101539.72;4195374;28;20023;-68
2023/12/27 03:00:05;;;;;;;;;;;;;;;5.50;80.10;101538.16;4194153;28;20019;-68
2023/12/27 03:02:06;;;;;;;;;;;;;;;5.49;80.20;101535.59;4194581;28;20462;-67
2023/12/27 03:04:09;;;;;;;;;;;;;;;5.45;80.06;101536.81;4194374;28;19951;-67
2023/12/27 03:06:12;;;;;;;;;;;;;;;5.43;80.07;101536.09;4194942;28;20031;-67
2023/12/27 03:08:13;;;;;;;;;;;;;;;5.43;80.36;101533.41;4194482;28;20024;-67
2023/12/27 03:10:15;;;;;;;;;;;;;;;5.42;80.82;101529.84;4194450;28;19968;-67
2023/12/27 03:12:17;;;;;;;;;;;;;;;5.41;80.97;101539.72;4192438;28;20027;-68
2023/12/27 03:14:22;;;;;;;;;;;;;;;5.41;80.54;101536.22;4194657;28;20086;-67
2023/12/27 03:16:24;;;;;;;;;;;;;;;5.42;80.75;101543.25;4194179;28;20011;-67
2023/12/27 03:18:26;;;;;;;;;;;;;;;5.39;80.58;101538.13;4194242;28;20036;-68
2023/12/27 03:20:28;;;;;;;;;;;;;;;5.36;80.43;101536.59;4193925;28;20031;-67
2023/12/27 03:22:30;;;;;;;;;;;;;;;5.33;80.68;101539.50;4210944;28;20051;-68
2023/12/27 03:24:32;;;;;;;;;;;;;;;5.34;80.68;101541.19;4193612;28;20569;-68
2023/12/27 03:26:33;;;;;;;;;;;;;;;5.31;80.85;101546.78;4195137;28;20019;-67
2023/12/27 03:28:35;;;;;;;;;;;;;;;5.31;80.78;101557.50;4197904;28;20639;-68
2023/12/27 03:30:38;;;;;;;;;;;;;;;5.29;80.95;101543.41;4197091;28;20011;-67
2023/12/27 03:32:40;;;;;;;;;;;;;;;5.25;80.88;101541.94;4196105;28;20031;-67
2023/12/27 03:34:41;;;;;;;;;;;;;;;5.24;81.42;101541.09;4198308;28;20011;-67
2023/12/27 03:36:43;;;;;;;;;;;;;;;5.24;81.35;101545.59;4198469;28;20456;-68
2023/12/27 03:38:46;;;;;;;;;;;;;;;5.23;81.52;101544.75;4196326;28;20014;-68
2023/12/27 03:40:52;;;;;;;;;;;;;;;5.23;81.91;101547.44;4196439;28;20011;-68
2023/12/27 03:42:57;;;;;;;;;;;;;;;5.24;81.70;101564.34;4195570;28;20019;-67
2023/12/27 03:44:59;;;;;;;;;;;;;;;5.25;82.13;101558.03;4197314;28;20027;-68
2023/12/27 03:47:02;;;;;;;;;;;;;;;5.24;81.66;101567.03;4196470;28;20019;-68
2023/12/27 03:49:03;;;;;;;;;;;;;;;5.25;81.76;101566.06;4196066;28;20032;-68
2023/12/27 03:51:05;;;;;;;;;;;;;;;5.24;81.64;101561.66;4196779;28;19925;-68
2023/12/27 03:53:07;;;;;;;;;;;;;;;5.22;81.36;101567.16;4197714;28;20019;-68
2023/12/27 03:55:11;;;;;;;;;;;;;;;5.21;81.21;101573.47;4197356;28;20031;-67
2023/12/27 03:57:12;;;;;;;;;;;;;;;5.21;81.37;101565.44;4197817;28;20437;-68
2023/12/27 03:59:14;;;;;;;;;;;;;;;5.19;81.37;101575.41;4179768;28;20040;-68
2023/12/27 04:01:18;;;;;;;;;;;;;;;5.19;81.64;101571.91;4197913;28;20031;-68
2023/12/27 04:03:21;;;;;;;;;;;;;;;5.18;81.55;101567.50;4196416;28;20024;-68
2023/12/27 04:05:23;;;;;;;;;;;;;;;5.17;81.62;101572.03;4197100;28;19924;-68
2023/12/27 04:07:25;;;;;;;;;;;;;;;5.17;81.95;101574.69;4198417;28;20015;-68
2023/12/27 04:09:27;;;;;;;;;;;;;;;5.18;81.70;101580.91;4196693;28;20023;-67
2023/12/27 04:11:29;;;;;;;;;;;;;;;5.20;81.66;101578.94;4195620;28;20015;-67
2023/12/27 04:13:31;;;;;;;;;;;;;;;5.20;82.02;101581.63;4196631;28;20069;-68
2023/12/27 04:15:33;;;;;;;;;;;;;;;5.22;82.13;101574.34;4180208;28;19991;-68
2023/12/27 04:17:35;;;;;;;;;;;;;;;5.20;81.53;101571.78;4189186;28;20023;-68
2023/12/27 04:19:38;;;;;;;;;;;;;;;5.23;82.07;101576.03;4196754;28;20882;-68
2023/12/27 04:21:40;;;;;;;;;;;;;;;5.22;81.88;101569.81;4195856;28;20465;-68
2023/12/27 04:23:42;;;;;;;;;;;;;;;5.22;82.04;101571.66;4194596;28;20388;-67
2023/12/27 04:25:44;;;;;;;;;;;;;;;5.20;82.07;101574.47;4196394;28;19928;-68
2023/12/27 04:27:46;;;;;;;;;;;;;;;5.20;82.00;101578.94;4197672;28;20058;-68
2023/12/27 04:29:47;;;;;;;;;;;;;;;5.18;81.42;101579.06;4195676;28;20366;-67
2023/12/27 04:31:49;;;;;;;;;;;;;;;5.19;81.69;101585.28;4196118;28;20031;-69
2023/12/27 04:33:51;;;;;;;;;;;;;;;5.19;81.68;101578.09;4197486;28;20074;-67
2023/12/27 04:35:55;;;;;;;;;;;;;;;5.18;81.41;101584.41;4196284;28;20026;-69
2023/12/27 04:37:57;;;;;;;;;;;;;;;5.18;81.79;101584.41;4212399;28;20022;-67
2023/12/27 04:39:59;;;;;;;;;;;;;;;5.19;81.69;101580.78;4196261;28;20039;-67
2023/12/27 04:42:01;;;;;;;;;;;;;;;5.20;81.99;101586.97;4187807;28;20027;-67
2023/12/27 04:44:04;;;;;;;;;;;;;;;5.17;81.50;101577.38;4196044;28;20011;-67
2023/12/27 04:46:06;;;;;;;;;;;;;;;5.15;81.38;101586.50;4196492;28;20390;-67
2023/12/27 04:48:09;;;;;;;;;;;;;;;5.14;81.45;101585.66;4196713;28;20019;-67
2023/12/27 04:50:12;;;;;;;;;;;;;;;5.15;81.32;101581.97;4195498;28;20047;-67
2023/12/27 04:52:15;;;;;;;;;;;;;;;5.14;81.13;101582.97;4196571;28;20039;-66
2023/12/27 04:54:18;;;;;;;;;;;;;;;5.13;81.03;101577.75;4195297;28;20066;-67
2023/12/27 04:56:20;;;;;;;;;;;;;;;5.12;81.22;101590.25;4196745;28;20018;-67
2023/12/27 04:58:22;;;;;;;;;;;;;;;5.10;81.38;101594.03;4195911;28;20032;-66
2023/12/27 05:00:24;;;;;;;;;;;;;;;5.10;81.33;101599.41;4195633;28;20019;-67
2023/12/27 05:02:26;;;;;;;;;;;;;;;5.08;81.49;101602.19;4195668;28;20352;-67
2023/12/27 05:04:28;;;;;;;;;;;;;;;5.06;81.51;101606.81;4195552;28;20035;-67
2023/12/27 05:06:31;;;;;;;;;;;;;;;5.07;81.65;101597.81;4195125;28;19955;-67
2023/12/27 05:08:34;;;;;;;;;;;;;;;5.05;81.93;101605.97;4196064;28;20023;-66
2023/12/27 05:10:37;;;;;;;;;;;;;;;5.07;81.51;101605.00;4195260;28;20027;-66
2023/12/27 05:12:39;;;;;;;;;;;;;;;5.06;81.49;101614.84;4194509;28;20023;-67
2023/12/27 05:14:41;;;;;;;;;;;;;;;5.05;81.13;101614.00;4195251;28;20027;-67
2023/12/27 05:16:43;;;;;;;;;;;;;;;5.03;81.30;101618.63;4196447;28;20026;-66
2023/12/27 05:18:44;;;;;;;;;;;;;;;5.02;81.45;101618.75;4195704;28;20008;-67
2023/12/27 05:20:46;;;;;;;;;;;;;;;4.98;81.11;101618.09;4196358;28;20012;-68
2023/12/27 05:22:48;;;;;;;;;;;;;;;4.95;81.33;101625.53;4195391;28;20007;-67
2023/12/27 05:24:51;;;;;;;;;;;;;;;4.93;81.31;101633.69;4196540;28;20011;-67
2023/12/27 05:26:55;;;;;;;;;;;;;;;4.89;80.95;101634.91;4190974;28;19935;-67
2023/12/27 05:28:57;;;;;;;;;;;;;;;4.86;81.17;101633.31;4196052;28;20486;-68
2023/12/27 05:30:59;;;;;;;;;;;;;;;4.85;81.19;101638.78;4195166;28;20023;-68
2023/12/27 05:33:01;;;;;;;;;;;;;;;4.81;81.10;101639.97;4196223;28;20019;-67
2023/12/27 05:35:03;;;;;;;;;;;;;;;4.79;80.96;101644.59;4194787;28;20018;-67
2023/12/27 05:37:05;;;;;;;;;;;;;;;4.77;81.04;101641.19;4196359;28;20011;-67
2023/12/27 05:39:06;;;;;;;;;;;;;;;4.74;81.54;101650.31;4195417;28;20015;-67
2023/12/27 05:41:09;;;;;;;;;;;;;;;4.72;81.35;101656.72;4194617;28;20075;-68
2023/12/27 05:43:10;;;;;;;;;;;;;;;4.70;81.36;101654.16;4194631;28;20371;-68
2023/12/27 05:45:12;;;;;;;;;;;;;;;4.69;81.39;101649.81;4195756;28;20390;-68
2023/12/27 05:47:16;;;;;;;;;;;;;;;4.67;81.28;101647.25;4195399;28;20493;-68
2023/12/27 05:49:18;;;;;;;;;;;;;;;4.67;81.78;101646.38;4195016;28;20047;-68
2023/12/27 05:51:20;;;;;;;;;;;;;;;4.63;81.55;101644.91;4196169;28;20019;-67
2023/12/27 05:53:22;;;;;;;;;;;;;;;4.61;81.77;101650.38;4195996;28;20011;-67
2023/12/27 05:55:24;;;;;;;;;;;;;;;4.61;81.79;101650.38;4196681;28;20039;-67
2023/12/27 05:57:26;;;;;;;;;;;;;;;4.61;82.15;101662.91;4196200;28;20019;-67
2023/12/27 05:59:28;;;;;;;;;;;;;;;4.57;81.69;101662.28;4195486;28;20023;-67
2023/12/27 06:01:30;;;;;;;;;;;;;;;4.55;81.74;101656.19;4195415;28;20414;-67
2023/12/27 06:03:32;;;;;;;;;;;;;;;4.55;81.90;101660.69;4195134;28;20020;-68
2023/12/27 06:05:33;;;;;;;;;;;;;;;4.54;81.99;101667.00;4195183;28;20012;-68
2023/12/27 06:07:37;;;;;;;;;;;;;;;4.52;81.88;101675.16;4196026;28;19935;-67
2023/12/27 06:09:40;;;;;;;;;;;;;;;4.48;81.96;101681.69;4194961;28;20367;-67
2023/12/27 06:11:42;;;;;;;;;;;;;;;4.46;81.85;101683.63;4193163;28;20015;-67
2023/12/27 06:13:45;;;;;;;;;;;;;;;4.46;81.94;101689.81;4194699;28;20015;-67
2023/12/27 06:15:47;;;;;;;;;;;;;;;4.44;81.79;101698.94;4192301;28;20023;-67
2023/12/27 06:17:49;;;;;;;;;;;;;;;4.43;81.98;101700.75;4194266;28;20031;-67
2023/12/27 06:19:51;;;;;;;;;;;;;;;4.42;81.98;101698.19;4194946;28;20026;-67
2023/12/27 06:21:53;;;;;;;;;;;;;;;4.38;81.82;101710.94;4195058;28;20019;-67
2023/12/27 06:23:55;;;;;;;;;;;;;;;4.37;82.16;101706.56;4194627;28;20023;-67
2023/12/27 06:25:57;;;;;;;;;;;;;;;4.33;82.25;101707.75;4194675;28;20020;-67
2023/12/27 06:27:59;;;;;;;;;;;;;;;4.30;82.00;101705.31;4195516;28;19924;-67
2023/12/27 06:30:03;;;;;;;;;;;;;;;4.27;82.13;101722.44;4194704;28;20019;-67
2023/12/27 06:32:04;;;;;;;;;;;;;;;4.25;81.97;101712.81;4193545;28;20015;-67
2023/12/27 06:34:07;;;;;;;;;;;;;;;4.22;82.09;101718.41;4194407;28;20071;-67
2023/12/27 06:36:08;;;;;;;;;;;;;;;4.20;82.34;101717.63;4193822;28;20024;-67
2023/12/27 06:38:10;;;;;;;;;;;;;;;4.18;82.70;101723.09;4195249;28;19924;-67
2023/12/27 06:40:15;;;;;;;;;;;;;;;4.19;82.64;101726.63;4194872;28;20047;-67
2023/12/27 06:42:19;;;;;;;;;;;;;;;4.15;82.54;101724.19;4209563;28;20433;-68
2023/12/27 06:44:21;;;;;;;;;;;;;;;4.13;82.71;101731.44;4194645;28;20019;-68
2023/12/27 06:46:24;;;;;;;;;;;;;;;4.13;82.45;101727.94;4195269;28;20369;-68
2023/12/27 06:48:25;;;;;;;;;;;;;;;4.10;82.58;101723.66;4194094;28;19931;-68
2023/12/27 06:50:27;;;;;;;;;;;;;;;4.10;82.94;101736.16;4192933;28;20022;-67
2023/12/27 06:52:29;;;;;;;;;;;;;;;4.09;82.77;101727.31;4195134;28;20015;-67
2023/12/27 06:54:31;;;;;;;;;;;;;;;4.08;82.98;101724.75;4195220;28;20015;-68
2023/12/27 06:56:34;;;;;;;;;;;;;;;4.07;83.04;101723.03;4192969;28;20022;-67
2023/12/27 06:58:36;;;;;;;;;;;;;;;4.06;83.37;101726.66;4194301;28;20391;-67
2023/12/27 07:00:38;;;;;;;;;;;;;;;4.06;83.04;101730.19;4194924;28;20011;-67
2023/12/27 07:02:44;;;;;;;;;;;;;;;4.06;83.33;101740.00;4198282;28;20019;-68
2023/12/27 07:04:46;;;;;;;;;;;;;;;4.04;83.45;101742.78;4198310;28;20438;-68
2023/12/27 07:06:48;;;;;;;;;;;;;;;4.04;83.23;101739.28;4198503;28;20465;-67
2023/12/27 07:08:50;;;;;;;;;;;;;;;4.02;83.07;101749.25;4198377;28;19925;-67
2023/12/27 07:10:52;;;;;;;;;;;;;;;4.02;83.37;101743.88;4197063;28;20011;-68
2023/12/27 07:12:57;;;;;;;;;;;;;;;4.00;83.20;101746.69;4194837;28;20019;-67
2023/12/27 07:14:59;;;;;;;;;;;;;;;3.96;83.49;101748.69;4198186;28;20007;-67
2023/12/27 07:17:04;;;;;;;;;;;;;;;3.95;83.20;101744.31;4198241;28;20450;-67
2023/12/27 07:19:08;;;;;;;;;;;;;;;3.94;83.50;101747.09;4194859;28;20035;-69
2023/12/27 07:21:10;;;;;;;;;;;;;;;3.91;83.67;101748.16;4196375;28;20425;-69
2023/12/27 07:23:13;;;;;;;;;;;;;;;3.90;83.76;101748.28;4197454;28;20016;-69
2023/12/27 07:25:14;;;;;;;;;;;;;;;3.90;83.94;101750.94;4197387;28;20046;-70
2023/12/27 07:27:16;;;;;;;;;;;;;;;3.90;83.99;101754.50;4199121;28;19928;-69
2023/12/27 07:29:17;;;;;;;;;;;;;;;3.88;84.05;101748.38;4196312;28;19925;-68
2023/12/27 07:31:20;;;;;;;;;;;;;;;3.89;83.76;101757.28;4197963;28;20026;-69
2023/12/27 07:33:21;;;;;;;;;;;;;;;3.90;84.07;101751.81;4198905;28;19939;-70
2023/12/27 07:35:25;;;;;;;;;;;;;;;3.90;84.05;101764.31;4197320;28;20019;-69
2023/12/27 07:37:27;;;;;;;;;;;;;;;3.92;83.96;101773.09;4195987;28;19929;-67
2023/12/27 07:39:29;;;;;;;;;;;;;;;3.92;84.06;101767.75;4197568;28;20007;-68
2023/12/27 07:41:32;;;;;;;;;;;;;;;3.92;83.92;101770.44;4196692;28;20358;-68
2023/12/27 07:43:35;;;;;;;;;;;;;;;3.91;83.83;101766.03;4197125;28;20350;-69
2023/12/27 07:45:38;;;;;;;;;;;;;;;3.91;84.04;101763.38;4197776;28;19976;-68
2023/12/27 07:47:41;;;;;;;;;;;;;;;3.91;83.95;101758.84;4196644;28;19928;-67
2023/12/27 07:49:43;;;;;;;;;;;;;;;3.92;84.15;101763.25;4197536;28;20025;-68
2023/12/27 07:51:47;;;;;;;;;;;;;;;3.91;84.23;101758.84;4188717;28;19954;-68
2023/12/27 07:53:50;;;;;;;;;;;;;;;3.93;84.42;101764.97;4196930;28;19999;-68
2023/12/27 07:55:52;;;;;;;;;;;;;;;3.92;84.05;101765.94;4197987;28;19932;-68
2023/12/27 07:57:54;;;;;;;;;;;;;;;3.92;84.26;101765.09;4198651;28;20015;-68
2023/12/27 07:59:55;;;;;;;;;;;;;;;3.93;84.35;101767.66;4197530;28;20392;-68
2023/12/27 08:01:58;;;;;;;;;;;;;;;3.94;84.43;101769.34;4197844;28;19970;-68
2023/12/27 08:04:00;;;;;;;;;;;;;;;3.95;84.17;101772.88;4194868;28;20020;-67
2023/12/27 08:06:02;;;;;;;;;;;;;;;3.94;84.53;101777.34;4191610;28;20023;-67
2023/12/27 08:08:06;;;;;;;;;;;;;;;3.95;84.42;101788.94;4192967;28;20027;-67
2023/12/27 08:10:08;;;;;;;;;;;;;;;3.97;84.45;101787.00;4193243;28;19925;-68
2023/12/27 08:12:10;;;;;;;;;;;;;;;3.96;84.29;101783.44;4192105;28;20011;-68
2023/12/27 08:14:12;;;;;;;;;;;;;;;3.96;84.31;101780.75;4193450;28;20453;-66
2023/12/27 08:16:14;;;;;;;;;;;;;;;3.98;84.26;101783.31;4193835;28;19959;-66
2023/12/27 08:18:16;;;;;;;;;;;;;;;3.99;84.49;101787.72;4193184;28;20023;-67
2023/12/27 08:20:18;;;;;;;;;;;;;;;3.99;84.41;101785.06;4193743;28;20015;-68
2023/12/27 08:22:20;;;;;;;;;;;;;;;4.00;84.59;101791.25;4192914;28;20039;-67
2023/12/27 08:24:24;;;;;;;;;;;;;;;4.01;84.37;101791.13;4193257;28;20450;-67
2023/12/27 08:26:26;;;;;;;;;;;;;;;4.02;84.30;101795.53;4193186;28;20019;-68
2023/12/27 08:28:27;;;;;;;;;;;;;;;4.03;84.44;101797.25;4193662;28;20043;-67
2023/12/27 08:30:29;;;;;;;;;;;;;;;4.04;84.28;101801.59;4194761;28;19928;-68
2023/12/27 08:32:31;;;;;;;;;;;;;;;4.05;84.26;101802.50;4193450;28;20016;-68
2023/12/27 08:34:33;;;;;;;;;;;;;;;4.05;83.97;101806.00;4194619;28;20011;-65
2023/12/27 08:36:35;;;;;;;;;;;;;;;4.08;84.32;101802.28;4192927;28;20027;-67
2023/12/27 08:38:37;;;;;;;;;;;;;;;4.07;83.84;101797.88;4193537;28;20019;-67
2023/12/27 08:40:40;;;;;;;;;;;;;;;4.07;83.81;101806.75;4193101;28;20015;-67
2023/12/27 08:42:42;;;;;;;;;;;;;;;4.09;83.69;101809.31;4194291;28;20039;-69
2023/12/27 08:44:43;;;;;;;;;;;;;;;4.09;83.71;101807.50;4194859;28;20031;-67
2023/12/27 08:46:45;;;;;;;;;;;;;;;4.11;83.83;101812.75;4194202;28;20430;-68
2023/12/27 08:48:47;;;;;;;;;;;;;;;4.13;83.85;101821.50;4193474;28;20142;-66
2023/12/27 08:50:49;;;;;;;;;;;;;;;4.14;83.71;101823.22;4193332;28;19963;-66
2023/12/27 08:52:51;;;;;;;;;;;;;;;4.17;83.80;101822.13;4191063;28;20020;-69
2023/12/27 08:54:53;;;;;;;;;;;;;;;4.17;83.56;101825.69;4194873;28;20398;-69
2023/12/27 08:56:56;;;;;;;;;;;;;;;4.18;83.25;101822.03;4193743;28;20028;-69
2023/12/27 08:58:58;;;;;;;;;;;;;;;4.20;83.46;101827.25;4193312;28;20015;-69
2023/12/27 09:01:01;;;;;;;;;;;;;;;4.22;83.75;101820.84;4192740;28;20020;-68
2023/12/27 09:03:03;;;;;;;;;;;;;;;4.24;83.45;101824.28;4192440;28;20027;-68
2023/12/27 09:05:06;;;;;;;;;;;;;;;4.26;83.41;101821.50;4193686;28;20338;-68
2023/12/27 09:07:08;;;;;;;;;;;;;;;4.27;83.47;101829.41;4191965;28;20019;-68
2023/12/27 09:09:11;;;;;;;;;;;;;;;4.29;83.27;101827.47;4192247;28;20338;-67
2023/12/27 09:11:13;;;;;;;;;;;;;;;4.33;83.26;101828.97;4189800;28;19924;-68
2023/12/27 09:13:16;;;;;;;;;;;;;;;4.37;83.07;101820.72;4191723;28;20348;-69
2023/12/27 09:15:18;;;;;;;;;;;;;;;4.40;83.24;101829.38;4191296;28;20012;-69
2023/12/27 09:17:20;;;;;;;;;;;;;;;4.43;83.26;101823.81;4192308;28;19967;-70
2023/12/27 09:19:22;;;;;;;;;;;;;;;4.46;83.09;101826.25;4189466;28;20015;-69
2023/12/27 09:21:23;;;;;;;;;;;;;;;4.48;82.98;101827.03;4187415;28;20031;-69
2023/12/27 09:23:25;;;;;;;;;;;;;;;4.53;83.06;101834.72;4190297;28;20370;-67
2023/12/27 09:25:29;;;;;;;;;;;;;;;4.55;82.90;101835.44;4189003;28;19999;-69
2023/12/27 09:27:31;;;;;;;;;;;;;;;4.59;82.92;101831.59;4209831;28;20027;-70
2023/12/27 09:29:34;;;;;;;;;;;;;;;4.62;82.68;101828.66;4189666;28;20047;-69
2023/12/27 09:31:36;;;;;;;;;;;;;;;4.67;82.34;101825.66;4189753;28;19924;-68
2023/12/27 09:33:42;;;;;;;;;;;;;;;4.71;82.48;101829.00;4192621;28;20489;-69
2023/12/27 09:35:44;;;;;;;;;;;;;;;4.74;82.13;101820.75;4189030;28;20012;-68
2023/12/27 09:37:46;;;;;;;;;;;;;;;4.79;82.37;101822.09;4191893;28;20395;-67
2023/12/27 09:39:48;;;;;;;;;;;;;;;4.84;82.45;101827.97;4193296;28;20047;-67
2023/12/27 09:41:50;;;;;;;;;;;;;;;4.89;82.07;101822.28;4185383;28;20023;-67
2023/12/27 09:43:53;;;;;;;;;;;;;;;4.91;82.22;101822.19;4189542;28;19928;-68
2023/12/27 09:45:57;;;;;;;;;;;;;;;4.94;81.89;101825.47;4191374;28;20020;-68
2023/12/27 09:47:59;;;;;;;;;;;;;;;4.99;82.17;101836.69;4191298;28;20365;-67
2023/12/27 09:50:01;;;;;;;;;;;;;;;5.02;82.21;101833.78;4192341;28;20024;-67
2023/12/27 09:52:03;;;;;;;;;;;;;;;5.07;81.74;101836.13;4190524;28;19939;-67
2023/12/27 09:54:05;;;;;;;;;;;;;;;5.09;81.44;101834.19;4193152;28;20449;-66
2023/12/27 09:56:08;;;;;;;;;;;;;;;5.13;81.49;101826.78;4191481;28;20020;-67
2023/12/27 09:58:10;;;;;;;;;;;;;;;5.18;81.40;101827.28;4190791;28;19947;-66
2023/12/27 10:00:12;;;;;;;;;;;;;;;5.23;81.48;101825.09;4191063;28;20026;-66
2023/12/27 10:02:16;;;;;;;;;;;;;;;5.27;81.13;101823.91;4190843;28;20026;-67
2023/12/27 10:04:19;;;;;;;;;;;;;;;5.31;80.68;101822.69;4191404;28;20442;-68
2023/12/27 10:06:22;;;;;;;;;;;;;;;5.34;80.49;101827.81;4190932;28;20416;-67
2023/12/27 10:08:24;;;;;;;;;;;;;;;5.36;80.34;101827.72;4189742;28;20015;-67
2023/12/27 10:10:26;;;;;;;;;;;;;;;5.38;80.34;101815.91;4189644;28;20430;-67
2023/12/27 10:12:28;;;;;;;;;;;;;;;5.45;80.25;101823.50;4187966;28;19924;-68
2023/12/27 10:14:30;;;;;;;;;;;;;;;5.49;80.11;101820.47;4189089;28;20011;-68
2023/12/27 10:16:31;;;;;;;;;;;;;;;5.51;80.04;101815.84;4192776;28;20031;-68
2023/12/27 10:18:34;;;;;;;;;;;;;;;5.53;79.67;101821.94;4193191;28;19932;-66
2023/12/27 10:20:38;;;;;;;;;;;;;;;5.56;79.71;101808.31;4192347;28;20027;-68
2023/12/27 10:22:39;;;;;;;;;;;;;;;5.59;79.64;101805.41;4192111;28;20023;-67
2023/12/27 10:24:41;;;;;;;;;;;;;;;5.66;79.54;101815.63;4192700;28;20381;-68
2023/12/27 10:26:42;;;;;;;;;;;;;;;5.70;79.66;101815.25;4191634;28;20012;-67
2023/12/27 10:28:44;;;;;;;;;;;;;;;5.69;79.29;101808.22;4192192;28;20015;-68
2023/12/27 10:30:46;;;;;;;;;;;;;;;5.73;79.72;101808.81;4192020;28;20611;-68
2023/12/27 10:32:55;;;;;;;;;;;;;;;5.73;79.43;101801.63;4192019;28;19932;-67
2023/12/27 10:34:59;;;;;;;;;;;;;;;5.79;79.39;101802.97;4191415;28;20012;-67
2023/12/27 10:37:01;;;;;;;;;;;;;;;5.82;79.22;101808.09;4192360;28;20031;-70